BIENTÔT MET'MAP
version 2.0 !

Prévue avant fin octobre,
la nouvelle version sera
plus belle, plus complète
et hébergée sur un serveur
3 fois plus puissant...
et toujours gratuite !


Pas compatible ?
Essayez la version Mobile !

SE CONNECTER : | S'inscrire | Disclaimer | Découvrir Orbifly |
Code OACI :
Lgende : VFR VFR Marginal IFR IFR Intensif IFR Trs Intensif
Visi :
Plafond :
>= 8 km
>= 3000ft
5 8 km
1000 3000 ft
1500m 5 km
500 1000 ft
800 1500m
200 500 ft
< 800m
< 200 ft

METAR - LWSK Skopje - 02 Jun 2020 08:01 UTC - Data Source NOAA   


- Altitude de l'aérodrome : 781 ft
- Code IATA : SKP
- Pas de NOTAMs connus.


LWSK - Skopje

Dernier METAR connu : 2015/08/11 08:00 LWSK 110800Z 00000KT CAVOK 26/12 Q1014 NOSIG
TAF TAF LWSK
Valide du 02 à 06h jusqu'au 03 à 06h UTC


020530Z 0206/0306 34008KT 9999 FEW040 SCT070
TEMPO 0210/0221 SHRA FEW035TCU BKN045 BKN080
PROB30
TEMPO 0213/0217 02020KT TSRA SCT033CB BKN040

Source NOAA


MET'MAP, la Météo Aéronautique d'un coup d'oeil ! - Copyright ORBIFLY Décembre 2007

Développement & Programmation : Alexandra Zaïnal
Co-Développement : Marc-Olivier Méhu
Soutien technique & logistique : Manuel Goepfert
Conception & Financement : Baudouin d'Aumeries